createdAt,value
2018-11-21T00:00:22.260Z,12.63
2018-11-21T00:03:08.884Z,12.13
2018-11-21T00:05:55.517Z,11.30
2018-11-21T00:08:42.216Z,8.67
2018-11-21T00:11:29.068Z,9.13
2018-11-21T00:14:18.706Z,14.67
2018-11-21T00:17:05.426Z,11.23
2018-11-21T00:19:52.231Z,12.33
2018-11-21T00:22:38.893Z,9.80
2018-11-21T00:25:25.522Z,9.13
2018-11-21T00:28:12.233Z,10.17
2018-11-21T00:31:04.007Z,10.50
2018-11-21T00:33:50.644Z,13.87
2018-11-21T00:36:37.417Z,13.63
2018-11-21T00:39:24.069Z,18.40
2018-11-21T00:42:12.968Z,13.87
2018-11-21T00:44:59.653Z,12.33
2018-11-21T00:47:46.342Z,11.40
2018-11-21T00:50:33.023Z,11.20
2018-11-21T00:53:22.732Z,11.47
2018-11-21T00:56:09.367Z,8.93
2018-11-21T00:58:36.468Z,9.13
2018-11-21T01:01:23.210Z,8.83
2018-11-21T01:04:09.882Z,12.57
2018-11-21T01:06:56.582Z,11.13
2018-11-21T01:09:43.311Z,10.13
2018-11-21T01:12:29.962Z,9.17
2018-11-21T01:15:16.621Z,8.30
2018-11-21T01:18:03.434Z,9.77
2018-11-21T01:20:52.416Z,9.97
2018-11-21T01:23:39.185Z,8.90
2018-11-21T01:26:23.473Z,9.43
2018-11-21T01:29:03.794Z,8.20
2018-11-21T01:31:43.276Z,12.03
2018-11-21T01:34:27.301Z,10.37
2018-11-21T01:39:54.783Z,13.53
2018-11-21T01:42:37.098Z,11.37
2018-11-21T01:45:16.824Z,10.67
2018-11-21T01:47:56.296Z,9.10
2018-11-21T01:50:41.715Z,9.75
2018-11-21T01:53:21.634Z,9.13
2018-11-21T01:56:01.244Z,9.07
2018-11-21T01:58:40.933Z,10.20
2018-11-21T02:01:20.274Z,14.07
2018-11-21T02:04:00.525Z,9.23
2018-11-21T02:06:40.150Z,7.50
2018-11-21T02:09:19.772Z,12.37
2018-11-21T02:11:59.299Z,10.80
2018-11-21T02:14:28.317Z,14.10
2018-11-21T02:17:14.933Z,10.73
2018-11-21T02:20:01.735Z,12.70
2018-11-21T02:22:48.487Z,11.07
2018-11-21T02:25:35.159Z,9.67
2018-11-21T02:28:21.858Z,8.70
2018-11-21T02:31:08.615Z,8.00
2018-11-21T02:33:55.443Z,10.33
2018-11-21T02:36:41.994Z,11.00
2018-11-21T02:39:28.612Z,9.70
2018-11-21T02:42:19.382Z,14.20
2018-11-21T02:45:05.150Z,12.53
2018-11-21T02:47:51.804Z,13.03
2018-11-21T02:50:40.055Z,8.27
2018-11-21T02:53:28.025Z,9.00
2018-11-21T02:56:14.727Z,9.10
2018-11-21T02:59:01.393Z,8.17
2018-11-21T03:01:28.489Z,8.40
2018-11-21T03:03:55.566Z,12.10
2018-11-21T03:06:44.230Z,8.63
2018-11-21T03:09:30.816Z,8.57
2018-11-21T03:12:17.494Z,8.53
2018-11-21T03:15:04.615Z,8.90
2018-11-21T03:21:41.027Z,8.57
2018-11-21T03:24:27.733Z,7.73
2018-11-21T03:27:14.461Z,7.00
2018-11-21T03:30:01.095Z,7.43
2018-11-21T03:32:47.748Z,10.30
2018-11-21T03:35:34.504Z,13.77
2018-11-21T03:38:21.164Z,11.43
2018-11-21T03:43:41.314Z,9.70
2018-11-21T03:46:30.473Z,10.00
2018-11-21T03:49:19.197Z,12.73
2018-11-21T03:52:05.809Z,11.30
2018-11-21T03:54:52.445Z,9.83
2018-11-21T03:57:39.277Z,8.70
2018-11-21T04:00:25.881Z,10.70
2018-11-21T04:03:12.536Z,13.17
2018-11-21T04:05:59.203Z,14.00
2018-11-21T04:08:45.932Z,12.77
2018-11-21T04:11:32.615Z,14.57
2018-11-21T04:14:19.301Z,14.90
2018-11-21T04:20:18.669Z,10.67
2018-11-21T04:23:05.314Z,10.60
2018-11-21T04:25:54.453Z,11.10
2018-11-21T04:28:41.098Z,10.00
2018-11-21T04:31:08.165Z,15.87
2018-11-21T04:33:57.705Z,12.43
2018-11-21T04:36:44.344Z,14.00
2018-11-21T04:39:30.982Z,13.43
2018-11-21T04:42:17.649Z,11.73
2018-11-21T04:45:05.118Z,12.37
2018-11-21T04:47:53.670Z,12.10
2018-11-21T04:50:40.403Z,10.73
2018-11-21T04:53:28.093Z,11.00
2018-11-21T04:56:14.112Z,9.80
2018-11-21T04:59:00.733Z,10.20
2018-11-21T05:01:47.367Z,9.40
2018-11-21T05:07:40.339Z,12.03
2018-11-21T05:10:27.052Z,12.10
2018-11-21T05:13:13.715Z,11.10
2018-11-21T05:16:00.332Z,9.37
2018-11-21T05:18:47.006Z,9.07
2018-11-21T05:21:35.816Z,9.57
2018-11-21T05:24:02.925Z,8.50
2018-11-21T05:26:53.008Z,10.03
2018-11-21T05:29:18.716Z,8.67
2018-11-21T05:31:45.788Z,7.47
2018-11-21T05:34:32.681Z,8.27
2018-11-21T05:37:19.304Z,7.27
2018-11-21T05:40:06.780Z,8.03
2018-11-21T05:42:53.419Z,8.60
2018-11-21T05:45:40.064Z,7.90
2018-11-21T05:48:29.716Z,15.57
2018-11-21T05:51:16.403Z,9.70
2018-11-21T05:54:03.037Z,9.27
2018-11-21T05:56:49.634Z,8.17
2018-11-21T05:59:38.562Z,11.13
2018-11-21T06:02:25.190Z,7.80
2018-11-21T06:05:12.346Z,8.00
2018-11-21T06:08:01.856Z,9.80
2018-11-21T06:13:35.337Z,9.07
2018-11-21T06:16:21.987Z,11.07
2018-11-21T06:19:08.686Z,10.40
2018-11-21T06:21:55.341Z,12.60
2018-11-21T06:24:41.973Z,9.17
2018-11-21T06:27:31.576Z,9.57
2018-11-21T06:30:18.308Z,10.97
2018-11-21T06:33:05.057Z,10.73
2018-11-21T06:35:51.714Z,10.47
2018-11-21T06:38:40.416Z,15.90
2018-11-21T06:41:25.035Z,12.67
2018-11-21T06:44:11.639Z,14.13
2018-11-21T06:46:58.394Z,12.80
2018-11-21T06:49:44.973Z,12.00
2018-11-21T06:52:31.626Z,12.17
2018-11-21T06:55:18.518Z,12.20
2018-11-21T06:58:05.459Z,10.70
2018-11-21T07:00:32.577Z,11.10
2018-11-21T07:03:19.172Z,11.93
2018-11-21T07:06:05.948Z,19.47
2018-11-21T07:08:52.562Z,15.47
2018-11-21T07:11:39.349Z,14.37
2018-11-21T07:14:28.854Z,13.23
2018-11-21T07:17:17.890Z,12.80
2018-11-21T07:20:05.971Z,13.30
2018-11-21T07:23:13.817Z,14.30
2018-11-21T07:26:00.603Z,12.90
2018-11-21T07:28:47.217Z,10.80
2018-11-21T07:31:34.100Z,9.90
2018-11-21T07:34:25.837Z,11.43
2018-11-21T07:37:12.476Z,10.50
2018-11-21T07:39:59.160Z,14.13
2018-11-21T07:42:45.832Z,12.17
2018-11-21T07:45:32.500Z,12.10
2018-11-21T07:51:12.587Z,13.33
2018-11-21T07:53:39.867Z,12.37
2018-11-21T07:56:46.083Z,13.43
2018-11-21T07:59:34.873Z,12.90
2018-11-21T08:02:30.084Z,11.97
2018-11-21T08:05:20.995Z,11.10
2018-11-21T08:08:27.272Z,12.60
2018-11-21T08:11:33.485Z,14.83
2018-11-21T08:14:39.736Z,11.97
2018-11-21T08:17:45.930Z,10.73
2018-11-21T08:20:52.150Z,17.50
2018-11-21T08:23:58.381Z,25.70
2018-11-21T08:27:04.574Z,28.27
2018-11-21T08:29:51.403Z,24.97
2018-11-21T08:32:38.071Z,24.40
2018-11-21T08:35:24.681Z,23.13
2018-11-21T08:38:11.628Z,22.67
2018-11-21T08:40:58.359Z,29.33
2018-11-21T08:43:45.523Z,26.93
2018-11-21T08:46:32.142Z,30.60
2018-11-21T08:49:18.824Z,24.73
2018-11-21T08:52:05.572Z,24.53
2018-11-21T08:54:59.443Z,29.83
2018-11-21T08:57:46.158Z,22.73
2018-11-21T09:00:34.183Z,23.53
2018-11-21T09:03:19.803Z,24.87
2018-11-21T09:06:06.424Z,23.37
2018-11-21T09:08:53.165Z,26.83
2018-11-21T09:11:39.885Z,21.70
2018-11-21T09:14:26.514Z,23.00
2018-11-21T09:17:13.288Z,27.80
2018-11-21T09:20:00.233Z,23.77
2018-11-21T09:22:46.971Z,22.00
2018-11-21T09:25:33.591Z,22.57
2018-11-21T09:28:20.236Z,22.47
2018-11-21T09:31:26.433Z,18.87
2018-11-21T09:34:13.069Z,21.10
2018-11-21T09:36:59.822Z,23.43
2018-11-21T09:39:46.509Z,29.70
2018-11-21T09:42:33.231Z,29.33
2018-11-21T09:45:20.938Z,26.87
2018-11-21T09:48:07.711Z,30.43
2018-11-21T09:50:54.351Z,27.13
2018-11-21T09:54:03.470Z,22.07
2018-11-21T09:56:50.103Z,23.33
2018-11-21T09:59:36.732Z,24.73
2018-11-21T10:03:02.458Z,28.23
2018-11-21T10:05:50.523Z,23.33
2018-11-21T10:08:56.778Z,29.10
2018-11-21T10:11:43.464Z,27.23
2018-11-21T10:14:30.097Z,27.67
2018-11-21T10:17:16.757Z,26.60
2018-11-21T10:20:03.502Z,27.07
2018-11-21T10:23:09.793Z,25.37
2018-11-21T10:25:58.421Z,21.80
2018-11-21T10:28:45.903Z,22.20
2018-11-21T10:31:32.535Z,20.50
2018-11-21T10:34:19.199Z,24.03
2018-11-21T10:37:05.840Z,24.93
2018-11-21T10:39:52.498Z,25.00
2018-11-21T10:42:39.094Z,27.73
2018-11-21T10:48:33.886Z,27.90
2018-11-21T10:51:23.398Z,25.40
2018-11-21T10:54:10.153Z,24.63
2018-11-21T10:56:56.788Z,23.17
2018-11-21T10:59:43.442Z,28.20
2018-11-21T11:02:49.678Z,25.87
2018-11-21T11:05:50.234Z,24.33
2018-11-21T11:08:56.557Z,28.67
2018-11-21T11:12:04.877Z,29.57
2018-11-21T11:15:11.033Z,26.27
2018-11-21T11:18:17.214Z,25.87
2018-11-21T11:21:25.457Z,26.67
2018-11-21T11:24:31.667Z,19.97
2018-11-21T11:27:37.888Z,25.70
2018-11-21T11:30:44.071Z,33.73
2018-11-21T11:33:50.286Z,25.83
2018-11-21T11:36:56.486Z,26.93
2018-11-21T11:39:58.751Z,24.03
2018-11-21T11:43:04.953Z,23.53
2018-11-21T11:46:11.132Z,28.63
2018-11-21T11:49:17.332Z,32.73
2018-11-21T11:52:23.833Z,25.83
2018-11-21T11:55:30.036Z,19.43
2018-11-21T11:58:26.247Z,27.30
2018-11-21T12:01:32.477Z,21.63
2018-11-21T12:04:34.602Z,18.83
2018-11-21T12:07:34.221Z,17.40
2018-11-21T12:10:33.659Z,14.40
2018-11-21T12:13:32.772Z,15.33
